Terminal Aerodrome Forecast
Issued by NWS Detroit/Pontiac, MI

Home | Current Version | Previous Version | Text Only | Print | Product List | Glossary On
Versions: 1 2 3 4 5 6 7 8 9 10 11 12 13 14 15 16 17
858
FTUS43 KDTX 262320
TAFFNT
TAF
KFNT 262320Z 2700/2724 23014G22KT P6SM BKN060
     FM270200 23012KT P6SM FEW050
     FM270800 23005KT P6SM SCT025 BKN040
     FM271400 21007KT P6SM SCT040
     FM272300 16004KT P6SM BKN040=

USA.gov is the U.S. government's official web portal to all federal, state and local government web resources and services.